sensor_id;sensor_type;location;lat;lon;timestamp;temperature;humidity
25991;DHT22;13779;-33.886;151.198;2023-03-15T00:01:21;23.20;99.90
25991;DHT22;13779;-33.886;151.198;2023-03-15T00:03:52;23.20;99.90
25991;DHT22;13779;-33.886;151.198;2023-03-15T00:06:24;23.30;99.90
25991;DHT22;13779;-33.886;151.198;2023-03-15T00:08:54;23.30;99.90
25991;DHT22;13779;-33.886;151.198;2023-03-15T00:11:24;23.30;99.90
25991;DHT22;13779;-33.886;151.198;2023-03-15T00:13:53;23.40;99.90
25991;DHT22;13779;-33.886;151.198;2023-03-15T00:16:23;23.50;99.90
25991;DHT22;13779;-33.886;151.198;2023-03-15T00:18:55;23.60;99.90
25991;DHT22;13779;-33.886;151.198;2023-03-15T00:21:25;23.70;99.90
25991;DHT22;13779;-33.886;151.198;2023-03-15T00:23:57;23.80;99.90
25991;DHT22;13779;-33.886;151.198;2023-03-15T00:26:27;23.80;99.90
25991;DHT22;13779;-33.886;151.198;2023-03-15T00:28:56;23.80;99.90
25991;DHT22;13779;-33.886;151.198;2023-03-15T00:31:26;23.90;99.90
25991;DHT22;13779;-33.886;151.198;2023-03-15T00:33:56;24.00;99.90
25991;DHT22;13779;-33.886;151.198;2023-03-15T00:36:26;24.00;99.90
25991;DHT22;13779;-33.886;151.198;2023-03-15T00:38:56;24.00;99.90
25991;DHT22;13779;-33.886;151.198;2023-03-15T00:41:26;24.10;99.90
25991;DHT22;13779;-33.886;151.198;2023-03-15T00:43:55;24.10;99.90
25991;DHT22;13779;-33.886;151.198;2023-03-15T00:46:25;24.20;99.90
25991;DHT22;13779;-33.886;151.198;2023-03-15T00:48:54;24.30;99.90
25991;DHT22;13779;-33.886;151.198;2023-03-15T00:51:24;24.30;99.90
25991;DHT22;13779;-33.886;151.198;2023-03-15T00:53:54;24.40;99.90
25991;DHT22;13779;-33.886;151.198;2023-03-15T00:56:24;24.50;99.90
25991;DHT22;13779;-33.886;151.198;2023-03-15T00:58:54;24.50;99.90
25991;DHT22;13779;-33.886;151.198;2023-03-15T01:01:25;24.50;99.90
25991;DHT22;13779;-33.886;151.198;2023-03-15T01:03:55;24.50;99.90
25991;DHT22;13779;-33.886;151.198;2023-03-15T01:06:26;24.60;99.90
25991;DHT22;13779;-33.886;151.198;2023-03-15T01:08:56;24.60;99.90
25991;DHT22;13779;-33.886;151.198;2023-03-15T01:11:26;24.70;99.90
25991;DHT22;13779;-33.886;151.198;2023-03-15T01:13:57;24.70;99.90
25991;DHT22;13779;-33.886;151.198;2023-03-15T01:16:27;24.70;99.90
25991;DHT22;13779;-33.886;151.198;2023-03-15T01:18:57;24.80;99.90
25991;DHT22;13779;-33.886;151.198;2023-03-15T01:21:27;24.90;99.90
25991;DHT22;13779;-33.886;151.198;2023-03-15T01:23:56;25.00;99.90
25991;DHT22;13779;-33.886;151.198;2023-03-15T01:26:26;25.00;99.90
25991;DHT22;13779;-33.886;151.198;2023-03-15T01:28:55;25.10;99.90
25991;DHT22;13779;-33.886;151.198;2023-03-15T01:31:26;25.20;99.90
25991;DHT22;13779;-33.886;151.198;2023-03-15T01:33:57;25.20;99.90
25991;DHT22;13779;-33.886;151.198;2023-03-15T01:36:26;25.20;99.90
25991;DHT22;13779;-33.886;151.198;2023-03-15T01:38:56;25.20;99.90
25991;DHT22;13779;-33.886;151.198;2023-03-15T01:41:25;25.30;99.90
25991;DHT22;13779;-33.886;151.198;2023-03-15T01:43:55;25.40;99.90
25991;DHT22;13779;-33.886;151.198;2023-03-15T01:46:26;25.30;99.90
25991;DHT22;13779;-33.886;151.198;2023-03-15T01:48:59;25.20;99.90
25991;DHT22;13779;-33.886;151.198;2023-03-15T01:51:38;25.10;99.90
25991;DHT22;13779;-33.886;151.198;2023-03-15T01:56:40;25.10;99.90
25991;DHT22;13779;-33.886;151.198;2023-03-15T01:59:18;25.30;99.90
25991;DHT22;13779;-33.886;151.198;2023-03-15T02:01:49;25.30;99.90
25991;DHT22;13779;-33.886;151.198;2023-03-15T02:04:44;25.40;99.90
25991;DHT22;13779;-33.886;151.198;2023-03-15T02:07:14;25.40;99.90
25991;DHT22;13779;-33.886;151.198;2023-03-15T02:10:00;25.40;99.90
25991;DHT22;13779;-33.886;151.198;2023-03-15T02:12:31;25.50;99.90
25991;DHT22;13779;-33.886;151.198;2023-03-15T02:15:03;25.60;99.90
25991;DHT22;13779;-33.886;151.198;2023-03-15T02:17:36;25.70;99.90
25991;DHT22;13779;-33.886;151.198;2023-03-15T02:22:43;25.60;99.90
25991;DHT22;13779;-33.886;151.198;2023-03-15T02:27:49;25.40;99.90
25991;DHT22;13779;-33.886;151.198;2023-03-15T02:30:19;25.40;99.90
25991;DHT22;13779;-33.886;151.198;2023-03-15T02:32:49;25.50;99.90
25991;DHT22;13779;-33.886;151.198;2023-03-15T02:35:25;25.70;99.90
25991;DHT22;13779;-33.886;151.198;2023-03-15T02:37:55;25.60;99.90
25991;DHT22;13779;-33.886;151.198;2023-03-15T02:40:26;25.70;99.90
25991;DHT22;13779;-33.886;151.198;2023-03-15T02:42:58;25.80;99.90
25991;DHT22;13779;-33.886;151.198;2023-03-15T02:45:29;25.70;99.90
25991;DHT22;13779;-33.886;151.198;2023-03-15T02:48:00;25.70;99.90
25991;DHT22;13779;-33.886;151.198;2023-03-15T02:50:31;25.70;99.90
25991;DHT22;13779;-33.886;151.198;2023-03-15T02:53:00;25.70;99.90
25991;DHT22;13779;-33.886;151.198;2023-03-15T02:55:33;25.70;99.90
25991;DHT22;13779;-33.886;151.198;2023-03-15T02:58:03;25.80;99.90
25991;DHT22;13779;-33.886;151.198;2023-03-15T03:00:32;25.80;99.90
25991;DHT22;13779;-33.886;151.198;2023-03-15T03:03:02;25.80;99.90
25991;DHT22;13779;-33.886;151.198;2023-03-15T03:05:32;25.80;99.90
25991;DHT22;13779;-33.886;151.198;2023-03-15T03:08:02;25.70;99.90
25991;DHT22;13779;-33.886;151.198;2023-03-15T03:10:32;25.80;99.90
25991;DHT22;13779;-33.886;151.198;2023-03-15T03:13:01;25.80;99.90
25991;DHT22;13779;-33.886;151.198;2023-03-15T03:15:31;25.90;99.90
25991;DHT22;13779;-33.886;151.198;2023-03-15T03:18:01;25.90;99.90
25991;DHT22;13779;-33.886;151.198;2023-03-15T03:20:30;25.90;99.90
25991;DHT22;13779;-33.886;151.198;2023-03-15T03:23:01;25.90;99.90
25991;DHT22;13779;-33.886;151.198;2023-03-15T03:25:33;25.80;99.90
25991;DHT22;13779;-33.886;151.198;2023-03-15T03:28:04;26.00;99.90
25991;DHT22;13779;-33.886;151.198;2023-03-15T03:30:34;26.00;99.90
25991;DHT22;13779;-33.886;151.198;2023-03-15T03:33:04;26.00;99.90
25991;DHT22;13779;-33.886;151.198;2023-03-15T03:35:33;26.10;99.90
25991;DHT22;13779;-33.886;151.198;2023-03-15T03:38:03;26.10;99.90
25991;DHT22;13779;-33.886;151.198;2023-03-15T03:40:32;26.10;99.90
25991;DHT22;13779;-33.886;151.198;2023-03-15T03:43:02;26.10;99.90
25991;DHT22;13779;-33.886;151.198;2023-03-15T03:45:34;26.00;99.90
25991;DHT22;13779;-33.886;151.198;2023-03-15T03:48:04;26.00;99.90
25991;DHT22;13779;-33.886;151.198;2023-03-15T03:50:33;26.00;99.90
25991;DHT22;13779;-33.886;151.198;2023-03-15T03:53:03;26.00;99.90
25991;DHT22;13779;-33.886;151.198;2023-03-15T03:55:32;26.00;99.90
25991;DHT22;13779;-33.886;151.198;2023-03-15T03:58:02;26.00;99.90
25991;DHT22;13779;-33.886;151.198;2023-03-15T04:00:31;26.00;99.90
25991;DHT22;13779;-33.886;151.198;2023-03-15T04:03:01;26.00;99.90
25991;DHT22;13779;-33.886;151.198;2023-03-15T04:05:31;26.00;99.90
25991;DHT22;13779;-33.886;151.198;2023-03-15T04:08:00;26.00;99.90
25991;DHT22;13779;-33.886;151.198;2023-03-15T04:10:30;26.00;99.90
25991;DHT22;13779;-33.886;151.198;2023-03-15T04:13:02;26.00;99.90
25991;DHT22;13779;-33.886;151.198;2023-03-15T04:15:32;26.00;99.90
25991;DHT22;13779;-33.886;151.198;2023-03-15T04:18:01;26.00;99.90
25991;DHT22;13779;-33.886;151.198;2023-03-15T04:20:33;26.00;99.90
25991;DHT22;13779;-33.886;151.198;2023-03-15T04:23:02;26.10;99.90
25991;DHT22;13779;-33.886;151.198;2023-03-15T04:25:35;26.20;99.90
25991;DHT22;13779;-33.886;151.198;2023-03-15T04:28:04;26.40;99.90
25991;DHT22;13779;-33.886;151.198;2023-03-15T04:30:38;26.50;99.90
25991;DHT22;13779;-33.886;151.198;2023-03-15T04:33:10;26.50;99.90
25991;DHT22;13779;-33.886;151.198;2023-03-15T04:35:39;26.50;99.90
25991;DHT22;13779;-33.886;151.198;2023-03-15T04:38:10;26.50;99.90
25991;DHT22;13779;-33.886;151.198;2023-03-15T04:40:39;26.50;99.90
25991;DHT22;13779;-33.886;151.198;2023-03-15T04:43:10;26.50;99.90
25991;DHT22;13779;-33.886;151.198;2023-03-15T04:45:39;26.50;99.90
25991;DHT22;13779;-33.886;151.198;2023-03-15T04:48:09;26.50;99.90
25991;DHT22;13779;-33.886;151.198;2023-03-15T04:50:38;26.40;99.90
25991;DHT22;13779;-33.886;151.198;2023-03-15T04:53:08;26.50;99.90
25991;DHT22;13779;-33.886;151.198;2023-03-15T04:55:37;26.40;99.90
25991;DHT22;13779;-33.886;151.198;2023-03-15T04:58:07;26.30;99.90
25991;DHT22;13779;-33.886;151.198;2023-03-15T05:00:36;26.30;99.90
25991;DHT22;13779;-33.886;151.198;2023-03-15T05:03:06;26.20;99.90
25991;DHT22;13779;-33.886;151.198;2023-03-15T05:05:35;26.10;99.90
25991;DHT22;13779;-33.886;151.198;2023-03-15T05:08:05;26.10;99.90
25991;DHT22;13779;-33.886;151.198;2023-03-15T05:10:34;26.10;99.90
25991;DHT22;13779;-33.886;151.198;2023-03-15T05:13:04;25.90;99.90
25991;DHT22;13779;-33.886;151.198;2023-03-15T05:15:33;25.90;99.90
25991;DHT22;13779;-33.886;151.198;2023-03-15T05:18:03;25.90;99.90
25991;DHT22;13779;-33.886;151.198;2023-03-15T05:20:33;25.90;99.90
25991;DHT22;13779;-33.886;151.198;2023-03-15T05:23:02;25.90;99.90
25991;DHT22;13779;-33.886;151.198;2023-03-15T05:25:32;25.80;99.90
25991;DHT22;13779;-33.886;151.198;2023-03-15T05:28:04;25.80;99.90
25991;DHT22;13779;-33.886;151.198;2023-03-15T05:30:34;25.80;99.90
25991;DHT22;13779;-33.886;151.198;2023-03-15T05:33:03;25.70;99.90
25991;DHT22;13779;-33.886;151.198;2023-03-15T05:35:33;25.70;99.90
25991;DHT22;13779;-33.886;151.198;2023-03-15T05:38:02;25.60;99.90
25991;DHT22;13779;-33.886;151.198;2023-03-15T05:40:32;25.60;99.90
25991;DHT22;13779;-33.886;151.198;2023-03-15T05:43:01;25.60;99.90
25991;DHT22;13779;-33.886;151.198;2023-03-15T05:45:31;25.50;99.90
25991;DHT22;13779;-33.886;151.198;2023-03-15T05:48:00;25.50;99.90
25991;DHT22;13779;-33.886;151.198;2023-03-15T05:50:30;25.40;99.90
25991;DHT22;13779;-33.886;151.198;2023-03-15T05:52:59;25.40;99.90
25991;DHT22;13779;-33.886;151.198;2023-03-15T05:55:29;25.30;99.90
25991;DHT22;13779;-33.886;151.198;2023-03-15T05:57:59;25.40;99.90
25991;DHT22;13779;-33.886;151.198;2023-03-15T06:00:28;25.40;99.90
25991;DHT22;13779;-33.886;151.198;2023-03-15T06:02:58;25.40;99.90
25991;DHT22;13779;-33.886;151.198;2023-03-15T06:05:28;25.40;99.90
25991;DHT22;13779;-33.886;151.198;2023-03-15T06:07:57;25.40;99.90
25991;DHT22;13779;-33.886;151.198;2023-03-15T06:10:27;25.40;99.90
25991;DHT22;13779;-33.886;151.198;2023-03-15T06:12:56;25.40;99.90
25991;DHT22;13779;-33.886;151.198;2023-03-15T06:15:26;25.40;99.90
25991;DHT22;13779;-33.886;151.198;2023-03-15T06:17:55;25.40;99.90
25991;DHT22;13779;-33.886;151.198;2023-03-15T06:20:25;25.30;99.90
25991;DHT22;13779;-33.886;151.198;2023-03-15T06:22:54;25.40;99.90
25991;DHT22;13779;-33.886;151.198;2023-03-15T06:25:23;25.30;99.90
25991;DHT22;13779;-33.886;151.198;2023-03-15T06:27:53;25.30;99.90
25991;DHT22;13779;-33.886;151.198;2023-03-15T06:30:22;25.20;99.90
25991;DHT22;13779;-33.886;151.198;2023-03-15T06:32:54;25.30;99.90
25991;DHT22;13779;-33.886;151.198;2023-03-15T06:35:23;25.30;99.90
25991;DHT22;13779;-33.886;151.198;2023-03-15T06:37:53;25.30;99.90
25991;DHT22;13779;-33.886;151.198;2023-03-15T06:40:23;25.20;99.90
25991;DHT22;13779;-33.886;151.198;2023-03-15T06:42:52;25.20;99.90
25991;DHT22;13779;-33.886;151.198;2023-03-15T06:45:22;25.20;99.90
25991;DHT22;13779;-33.886;151.198;2023-03-15T06:47:52;25.20;99.90
25991;DHT22;13779;-33.886;151.198;2023-03-15T06:50:21;25.20;99.90
25991;DHT22;13779;-33.886;151.198;2023-03-15T06:52:53;25.20;99.90
25991;DHT22;13779;-33.886;151.198;2023-03-15T06:55:23;25.20;99.90
25991;DHT22;13779;-33.886;151.198;2023-03-15T06:57:52;25.10;99.90
25991;DHT22;13779;-33.886;151.198;2023-03-15T07:00:22;25.10;99.90
25991;DHT22;13779;-33.886;151.198;2023-03-15T07:02:51;25.10;99.90
25991;DHT22;13779;-33.886;151.198;2023-03-15T07:05:21;25.00;99.90
25991;DHT22;13779;-33.886;151.198;2023-03-15T07:07:51;25.00;99.90
25991;DHT22;13779;-33.886;151.198;2023-03-15T07:10:20;25.00;99.90
25991;DHT22;13779;-33.886;151.198;2023-03-15T07:12:50;25.00;99.90
25991;DHT22;13779;-33.886;151.198;2023-03-15T07:15:19;25.00;99.90
25991;DHT22;13779;-33.886;151.198;2023-03-15T07:17:49;24.90;99.90
25991;DHT22;13779;-33.886;151.198;2023-03-15T07:20:18;24.90;99.90
25991;DHT22;13779;-33.886;151.198;2023-03-15T07:22:48;24.80;99.90
25991;DHT22;13779;-33.886;151.198;2023-03-15T07:25:18;24.90;99.90
25991;DHT22;13779;-33.886;151.198;2023-03-15T07:27:51;24.80;99.90
25991;DHT22;13779;-33.886;151.198;2023-03-15T07:30:21;24.80;99.90
25991;DHT22;13779;-33.886;151.198;2023-03-15T07:32:50;24.80;99.90
25991;DHT22;13779;-33.886;151.198;2023-03-15T07:35:21;24.70;99.90
25991;DHT22;13779;-33.886;151.198;2023-03-15T07:37:51;24.70;99.90
25991;DHT22;13779;-33.886;151.198;2023-03-15T07:40:21;24.60;99.90
25991;DHT22;13779;-33.886;151.198;2023-03-15T07:42:51;24.60;99.90
25991;DHT22;13779;-33.886;151.198;2023-03-15T07:45:21;24.60;99.90
25991;DHT22;13779;-33.886;151.198;2023-03-15T07:47:50;24.60;99.90
25991;DHT22;13779;-33.886;151.198;2023-03-15T07:50:22;24.50;99.90
25991;DHT22;13779;-33.886;151.198;2023-03-15T07:52:52;24.50;99.90
25991;DHT22;13779;-33.886;151.198;2023-03-15T07:55:22;24.50;99.90
25991;DHT22;13779;-33.886;151.198;2023-03-15T07:57:52;24.40;99.90
25991;DHT22;13779;-33.886;151.198;2023-03-15T08:00:22;24.40;99.90
25991;DHT22;13779;-33.886;151.198;2023-03-15T08:02:52;24.40;99.90
25991;DHT22;13779;-33.886;151.198;2023-03-15T08:05:22;24.40;99.90
25991;DHT22;13779;-33.886;151.198;2023-03-15T08:07:55;24.40;99.90
25991;DHT22;13779;-33.886;151.198;2023-03-15T08:10:24;24.30;99.90
25991;DHT22;13779;-33.886;151.198;2023-03-15T08:12:54;24.30;99.90
25991;DHT22;13779;-33.886;151.198;2023-03-15T08:15:23;24.30;99.90
25991;DHT22;13779;-33.886;151.198;2023-03-15T08:17:53;24.30;99.90
25991;DHT22;13779;-33.886;151.198;2023-03-15T08:20:22;24.30;99.90
25991;DHT22;13779;-33.886;151.198;2023-03-15T08:22:55;24.30;99.90
25991;DHT22;13779;-33.886;151.198;2023-03-15T08:25:24;24.20;99.90
25991;DHT22;13779;-33.886;151.198;2023-03-15T08:27:54;24.20;99.90
25991;DHT22;13779;-33.886;151.198;2023-03-15T08:30:24;24.20;99.90
25991;DHT22;13779;-33.886;151.198;2023-03-15T08:32:53;24.20;99.90
25991;DHT22;13779;-33.886;151.198;2023-03-15T08:35:23;24.20;99.90
25991;DHT22;13779;-33.886;151.198;2023-03-15T08:37:53;24.20;99.90
25991;DHT22;13779;-33.886;151.198;2023-03-15T08:40:23;24.20;99.90
25991;DHT22;13779;-33.886;151.198;2023-03-15T08:42:52;24.10;99.90
25991;DHT22;13779;-33.886;151.198;2023-03-15T08:45:23;24.10;99.90
25991;DHT22;13779;-33.886;151.198;2023-03-15T08:47:59;24.10;99.90
25991;DHT22;13779;-33.886;151.198;2023-03-15T08:50:29;24.00;99.90
25991;DHT22;13779;-33.886;151.198;2023-03-15T08:53:01;24.10;99.90
25991;DHT22;13779;-33.886;151.198;2023-03-15T08:55:30;24.10;99.90
25991;DHT22;13779;-33.886;151.198;2023-03-15T08:58:00;24.00;99.90
25991;DHT22;13779;-33.886;151.198;2023-03-15T09:00:30;24.00;99.90
25991;DHT22;13779;-33.886;151.198;2023-03-15T09:03:00;24.00;99.90
25991;DHT22;13779;-33.886;151.198;2023-03-15T09:05:30;24.00;99.90
25991;DHT22;13779;-33.886;151.198;2023-03-15T09:07:59;24.00;99.90
25991;DHT22;13779;-33.886;151.198;2023-03-15T09:10:29;24.00;99.90
25991;DHT22;13779;-33.886;151.198;2023-03-15T09:12:59;24.00;99.90
25991;DHT22;13779;-33.886;151.198;2023-03-15T09:15:28;24.00;99.90
25991;DHT22;13779;-33.886;151.198;2023-03-15T09:17:58;24.00;99.90
25991;DHT22;13779;-33.886;151.198;2023-03-15T09:20:27;23.90;99.90
25991;DHT22;13779;-33.886;151.198;2023-03-15T09:22:57;23.90;99.90
25991;DHT22;13779;-33.886;151.198;2023-03-15T09:25:27;23.90;99.90
25991;DHT22;13779;-33.886;151.198;2023-03-15T09:27:56;23.90;99.90
25991;DHT22;13779;-33.886;151.198;2023-03-15T09:30:26;23.90;99.90
25991;DHT22;13779;-33.886;151.198;2023-03-15T09:32:56;23.90;99.90
25991;DHT22;13779;-33.886;151.198;2023-03-15T09:35:26;23.90;99.90
25991;DHT22;13779;-33.886;151.198;2023-03-15T09:37:55;23.90;99.90
25991;DHT22;13779;-33.886;151.198;2023-03-15T09:50:52;23.90;99.90
25991;DHT22;13779;-33.886;151.198;2023-03-15T09:53:24;24.00;99.90
25991;DHT22;13779;-33.886;151.198;2023-03-15T09:55:55;24.00;99.90
25991;DHT22;13779;-33.886;151.198;2023-03-15T09:58:27;24.00;99.90
25991;DHT22;13779;-33.886;151.198;2023-03-15T10:01:03;24.00;99.90
25991;DHT22;13779;-33.886;151.198;2023-03-15T10:03:46;23.90;99.90
25991;DHT22;13779;-33.886;151.198;2023-03-15T10:08:46;23.80;99.90
25991;DHT22;13779;-33.886;151.198;2023-03-15T10:11:31;23.70;99.90
25991;DHT22;13779;-33.886;151.198;2023-03-15T10:14:07;23.70;99.90
25991;DHT22;13779;-33.886;151.198;2023-03-15T10:16:42;23.70;99.90
25991;DHT22;13779;-33.886;151.198;2023-03-15T10:24:36;23.70;99.90
25991;DHT22;13779;-33.886;151.198;2023-03-15T10:27:17;23.70;99.90
25991;DHT22;13779;-33.886;151.198;2023-03-15T10:29:48;23.70;99.90
25991;DHT22;13779;-33.886;151.198;2023-03-15T10:32:19;23.70;99.90
25991;DHT22;13779;-33.886;151.198;2023-03-15T10:34:51;23.70;99.90
25991;DHT22;13779;-33.886;151.198;2023-03-15T10:37:22;23.60;99.90
25991;DHT22;13779;-33.886;151.198;2023-03-15T10:39:54;23.60;99.90
25991;DHT22;13779;-33.886;151.198;2023-03-15T10:42:29;23.70;99.90
25991;DHT22;13779;-33.886;151.198;2023-03-15T10:44:59;23.80;99.90
25991;DHT22;13779;-33.886;151.198;2023-03-15T10:47:41;23.70;99.90
25991;DHT22;13779;-33.886;151.198;2023-03-15T10:50:25;23.60;99.90
25991;DHT22;13779;-33.886;151.198;2023-03-15T10:52:55;23.50;99.90
25991;DHT22;13779;-33.886;151.198;2023-03-15T10:55:29;23.50;99.90
25991;DHT22;13779;-33.886;151.198;2023-03-15T10:58:12;23.40;99.90
25991;DHT22;13779;-33.886;151.198;2023-03-15T11:00:49;23.50;99.90
25991;DHT22;13779;-33.886;151.198;2023-03-15T11:03:21;23.50;99.90
25991;DHT22;13779;-33.886;151.198;2023-03-15T11:05:51;23.50;99.90
25991;DHT22;13779;-33.886;151.198;2023-03-15T11:08:23;23.50;99.90
25991;DHT22;13779;-33.886;151.198;2023-03-15T11:10:57;23.50;99.90
25991;DHT22;13779;-33.886;151.198;2023-03-15T11:13:27;23.50;99.90
25991;DHT22;13779;-33.886;151.198;2023-03-15T11:16:30;23.50;99.90
25991;DHT22;13779;-33.886;151.198;2023-03-15T11:19:02;23.40;99.90
25991;DHT22;13779;-33.886;151.198;2023-03-15T11:21:32;23.40;99.90
25991;DHT22;13779;-33.886;151.198;2023-03-15T11:24:04;23.40;99.90
25991;DHT22;13779;-33.886;151.198;2023-03-15T11:26:37;23.40;99.90
25991;DHT22;13779;-33.886;151.198;2023-03-15T11:29:15;23.40;99.90
25991;DHT22;13779;-33.886;151.198;2023-03-15T11:31:48;23.40;99.90
25991;DHT22;13779;-33.886;151.198;2023-03-15T11:37:15;23.40;99.90
25991;DHT22;13779;-33.886;151.198;2023-03-15T11:40:02;23.40;99.90
25991;DHT22;13779;-33.886;151.198;2023-03-15T11:42:48;23.40;99.90
25991;DHT22;13779;-33.886;151.198;2023-03-15T11:45:41;23.30;99.90
25991;DHT22;13779;-33.886;151.198;2023-03-15T11:48:16;23.30;99.90
25991;DHT22;13779;-33.886;151.198;2023-03-15T11:50:51;23.40;99.90
25991;DHT22;13779;-33.886;151.198;2023-03-15T11:53:21;23.40;99.90
25991;DHT22;13779;-33.886;151.198;2023-03-15T11:55:51;23.40;99.90
25991;DHT22;13779;-33.886;151.198;2023-03-15T12:01:02;23.20;99.90
25991;DHT22;13779;-33.886;151.198;2023-03-15T12:03:37;23.20;99.90
25991;DHT22;13779;-33.886;151.198;2023-03-15T12:16:44;23.10;99.90
25991;DHT22;13779;-33.886;151.198;2023-03-15T12:19:15;23.20;99.90
25991;DHT22;13779;-33.886;151.198;2023-03-15T12:21:46;23.20;99.90
25991;DHT22;13779;-33.886;151.198;2023-03-15T12:24:21;23.20;99.90
25991;DHT22;13779;-33.886;151.198;2023-03-15T12:27:01;23.20;99.90
25991;DHT22;13779;-33.886;151.198;2023-03-15T12:29:32;23.00;99.90
25991;DHT22;13779;-33.886;151.198;2023-03-15T12:32:07;22.90;99.90
25991;DHT22;13779;-33.886;151.198;2023-03-15T12:34:46;22.90;99.90
25991;DHT22;13779;-33.886;151.198;2023-03-15T12:39:49;22.90;99.90
25991;DHT22;13779;-33.886;151.198;2023-03-15T12:47:49;22.90;99.90
25991;DHT22;13779;-33.886;151.198;2023-03-15T12:53:20;22.90;99.90
25991;DHT22;13779;-33.886;151.198;2023-03-15T12:55:52;22.90;99.90
25991;DHT22;13779;-33.886;151.198;2023-03-15T12:58:37;22.90;99.90
25991;DHT22;13779;-33.886;151.198;2023-03-15T13:01:08;22.90;99.90
25991;DHT22;13779;-33.886;151.198;2023-03-15T13:03:43;22.90;99.90
25991;DHT22;13779;-33.886;151.198;2023-03-15T13:08:52;22.80;99.90
25991;DHT22;13779;-33.886;151.198;2023-03-15T13:16:56;22.80;99.90
25991;DHT22;13779;-33.886;151.198;2023-03-15T13:19:40;22.80;99.90
25991;DHT22;13779;-33.886;151.198;2023-03-15T13:33:14;22.70;99.90
25991;DHT22;13779;-33.886;151.198;2023-03-15T13:35:52;22.70;99.90
25991;DHT22;13779;-33.886;151.198;2023-03-15T13:38:24;22.70;99.90
25991;DHT22;13779;-33.886;151.198;2023-03-15T13:40:54;22.70;99.90
25991;DHT22;13779;-33.886;151.198;2023-03-15T13:43:33;22.70;99.90
25991;DHT22;13779;-33.886;151.198;2023-03-15T13:46:07;22.70;99.90
25991;DHT22;13779;-33.886;151.198;2023-03-15T13:48:40;22.70;99.90
25991;DHT22;13779;-33.886;151.198;2023-03-15T13:51:21;22.70;99.90
25991;DHT22;13779;-33.886;151.198;2023-03-15T13:54:34;22.60;99.90
25991;DHT22;13779;-33.886;151.198;2023-03-15T14:00:10;22.60;99.90
25991;DHT22;13779;-33.886;151.198;2023-03-15T14:02:18;22.60;99.90
25991;DHT22;13779;-33.886;151.198;2023-03-15T14:04:53;22.60;99.90
25991;DHT22;13779;-33.886;151.198;2023-03-15T14:10:19;22.50;99.90
25991;DHT22;13779;-33.886;151.198;2023-03-15T14:12:53;22.60;99.90
25991;DHT22;13779;-33.886;151.198;2023-03-15T14:15:36;22.50;99.90
25991;DHT22;13779;-33.886;151.198;2023-03-15T14:23:28;22.50;99.90
25991;DHT22;13779;-33.886;151.198;2023-03-15T14:26:17;22.50;99.90
25991;DHT22;13779;-33.886;151.198;2023-03-15T14:28:51;22.60;99.90
25991;DHT22;13779;-33.886;151.198;2023-03-15T14:31:24;22.50;99.90
25991;DHT22;13779;-33.886;151.198;2023-03-15T14:33:56;22.60;99.90
25991;DHT22;13779;-33.886;151.198;2023-03-15T14:36:30;22.60;99.90
25991;DHT22;13779;-33.886;151.198;2023-03-15T14:39:00;22.50;99.90
25991;DHT22;13779;-33.886;151.198;2023-03-15T14:41:31;22.50;99.90
25991;DHT22;13779;-33.886;151.198;2023-03-15T14:44:08;22.50;99.90
25991;DHT22;13779;-33.886;151.198;2023-03-15T14:46:41;22.40;99.90
25991;DHT22;13779;-33.886;151.198;2023-03-15T14:49:17;22.30;99.90
25991;DHT22;13779;-33.886;151.198;2023-03-15T14:51:49;22.30;99.90
25991;DHT22;13779;-33.886;151.198;2023-03-15T14:54:23;22.30;99.90
25991;DHT22;13779;-33.886;151.198;2023-03-15T14:56:53;22.30;99.90
25991;DHT22;13779;-33.886;151.198;2023-03-15T14:59:22;22.20;99.90
25991;DHT22;13779;-33.886;151.198;2023-03-15T15:01:59;22.30;99.90
25991;DHT22;13779;-33.886;151.198;2023-03-15T15:04:33;22.20;99.90
25991;DHT22;13779;-33.886;151.198;2023-03-15T15:07:12;22.20;99.90
25991;DHT22;13779;-33.886;151.198;2023-03-15T15:09:43;22.20;99.90
25991;DHT22;13779;-33.886;151.198;2023-03-15T15:12:14;22.20;99.90
25991;DHT22;13779;-33.886;151.198;2023-03-15T15:14:46;22.20;99.90
25991;DHT22;13779;-33.886;151.198;2023-03-15T15:17:19;22.20;99.90
25991;DHT22;13779;-33.886;151.198;2023-03-15T15:19:49;22.20;99.90
25991;DHT22;13779;-33.886;151.198;2023-03-15T15:22:22;22.20;99.90
25991;DHT22;13779;-33.886;151.198;2023-03-15T15:24:51;22.20;99.90
25991;DHT22;13779;-33.886;151.198;2023-03-15T15:27:21;22.20;99.90
25991;DHT22;13779;-33.886;151.198;2023-03-15T15:29:59;22.20;99.90
25991;DHT22;13779;-33.886;151.198;2023-03-15T15:32:32;22.20;99.90
25991;DHT22;13779;-33.886;151.198;2023-03-15T15:35:02;22.20;99.90
25991;DHT22;13779;-33.886;151.198;2023-03-15T15:37:33;22.20;99.90
25991;DHT22;13779;-33.886;151.198;2023-03-15T15:40:03;22.10;99.90
25991;DHT22;13779;-33.886;151.198;2023-03-15T15:42:33;22.10;99.90
25991;DHT22;13779;-33.886;151.198;2023-03-15T15:45:04;22.10;99.90
25991;DHT22;13779;-33.886;151.198;2023-03-15T15:47:37;22.10;99.90
25991;DHT22;13779;-33.886;151.198;2023-03-15T15:50:07;22.00;99.90
25991;DHT22;13779;-33.886;151.198;2023-03-15T15:52:38;22.10;99.90
25991;DHT22;13779;-33.886;151.198;2023-03-15T15:55:18;22.10;99.90
25991;DHT22;13779;-33.886;151.198;2023-03-15T15:57:49;22.10;99.90
25991;DHT22;13779;-33.886;151.198;2023-03-15T16:00:20;22.10;99.90
25991;DHT22;13779;-33.886;151.198;2023-03-15T16:02:51;22.10;99.90
25991;DHT22;13779;-33.886;151.198;2023-03-15T16:05:22;22.10;99.90
25991;DHT22;13779;-33.886;151.198;2023-03-15T16:07:53;22.00;99.90
25991;DHT22;13779;-33.886;151.198;2023-03-15T16:10:23;22.00;99.90
25991;DHT22;13779;-33.886;151.198;2023-03-15T16:12:53;22.00;99.90
25991;DHT22;13779;-33.886;151.198;2023-03-15T16:15:23;22.00;99.90
25991;DHT22;13779;-33.886;151.198;2023-03-15T16:17:52;22.10;99.90
25991;DHT22;13779;-33.886;151.198;2023-03-15T16:20:22;22.00;99.90
25991;DHT22;13779;-33.886;151.198;2023-03-15T16:22:55;22.00;99.90
25991;DHT22;13779;-33.886;151.198;2023-03-15T16:25:27;22.10;99.90
25991;DHT22;13779;-33.886;151.198;2023-03-15T16:27:57;22.10;99.90
25991;DHT22;13779;-33.886;151.198;2023-03-15T16:30:29;22.10;99.90
25991;DHT22;13779;-33.886;151.198;2023-03-15T16:32:59;22.00;99.90
25991;DHT22;13779;-33.886;151.198;2023-03-15T16:35:35;22.00;99.90
25991;DHT22;13779;-33.886;151.198;2023-03-15T16:38:05;22.00;99.90